Time;durP1;ratioP1;P1;durP2;ratioP2;P2;SDS_P1;SDS_P2;PMS_P1;PMS_P2;Temp;Humidity;BMP_temperature;BMP_pressure;BME280_temperature;BME280_humidity;BME280_pressure;Samples;Min_cycle;Max_cycle;Signal;HPM_P1;HPM_P2
2022/05/16 00:00:25;;;;;;;1.60;1.30;;;23.10;43.80;;;23.57;32.46;98584.63;4983330;28;123084;-95
2022/05/16 00:02:53;;;;;;;1.47;1.20;;;23.10;43.90;;;23.54;32.48;98571.34;5012455;28;115209;-95
2022/05/16 00:05:40;;;;;;;3.20;1.57;;;23.00;43.90;;;23.52;32.68;98570.13;5012280;28;113972;-93
2022/05/16 00:08:07;;;;;;;1.70;1.37;;;23.00;44.00;;;23.50;32.63;98576.16;5012711;28;123328;-94
2022/05/16 00:10:35;;;;;;;1.60;1.50;;;23.00;44.20;;;23.45;32.94;98570.13;4980412;28;123373;-95
2022/05/16 00:13:21;;;;;;;1.87;1.53;;;22.90;44.30;;;23.40;32.86;98570.53;4980711;28;113792;-95
2022/05/16 00:16:07;;;;;;;1.80;1.43;;;22.90;44.40;;;23.36;32.75;98567.72;4981982;28;114588;-94
2022/05/16 00:18:35;;;;;;;1.67;1.37;;;22.90;44.60;;;23.33;32.89;98569.34;4992557;28;124073;-95
2022/05/16 00:21:40;;;;;;;1.80;1.57;;;22.80;44.50;;;23.28;33.13;98561.28;4974728;28;123898;-95
2022/05/16 00:24:28;;;;;;;1.77;1.40;;;22.80;44.60;;;23.27;33.13;98565.31;4994416;28;115509;-94
2022/05/16 00:27:01;;;;;;;1.67;1.40;;;22.70;44.60;;;23.26;33.09;98555.25;4983621;28;115248;-93
2022/05/16 00:29:49;;;;;;;1.57;1.30;;;22.70;44.80;;;23.21;33.48;98549.22;4979379;28;123211;-94
2022/05/16 00:32:18;;;;;;;1.33;1.20;;;22.70;44.90;;;23.19;33.37;98555.25;4983629;28;123387;-93
2022/05/16 00:34:46;;;;;;;3.00;1.50;;;22.70;45.00;;;23.18;33.20;98553.63;5014046;28;114814;-95
2022/05/16 00:37:13;;;;;;;2.80;1.40;;;22.60;45.10;;;23.14;33.55;98550.81;4985199;28;113273;-94
2022/05/16 00:39:40;;;;;;;2.20;1.50;;;22.60;45.10;;;23.12;33.61;98555.25;4974062;28;124277;-94
2022/05/16 00:42:12;;;;;;;2.10;1.37;;;22.60;45.20;;;23.10;33.51;98549.22;4963741;28;123286;-94
2022/05/16 00:44:40;;;;;;;1.77;1.40;;;22.60;45.20;;;23.06;33.65;98548.41;4974106;28;113357;-94
2022/05/16 00:47:08;;;;;;;3.00;1.57;;;22.50;45.30;;;23.01;33.85;98548.81;4996422;28;113390;-94
2022/05/16 00:49:40;;;;;;;1.30;1.17;;;22.50;45.30;;;22.99;33.74;98539.97;4981622;28;123792;-94
2022/05/16 00:52:32;;;;;;;1.73;1.30;;;22.50;45.50;;;22.93;33.71;98536.72;4999551;28;122862;-95
2022/05/16 00:55:09;;;;;;;1.87;1.60;;;22.40;45.40;;;22.92;33.93;98535.91;4982682;28;114013;-95
2022/05/16 00:57:59;;;;;;;3.50;1.50;;;22.40;45.60;;;22.88;33.91;98537.91;4998226;28;113388;-93
2022/05/16 01:00:35;;;;;;;1.23;1.10;;;22.40;45.70;;;22.87;33.97;98527.84;5002114;28;122443;-94
2022/05/16 01:06:40;;;;;;;1.30;1.20;;;22.30;45.80;;;22.76;34.15;98526.25;4981236;28;114256;-94
2022/05/16 01:09:09;;;;;;;2.13;1.47;;;22.30;46.00;;;22.74;34.29;98532.28;4979970;28;113284;-95
2022/05/16 01:11:56;;;;;;;2.03;1.30;;;22.20;46.00;;;22.72;34.38;98531.84;4981633;28;123579;-94
2022/05/16 01:14:48;;;;;;;2.83;1.87;;;22.20;46.10;;;22.68;34.08;98531.06;4978651;28;122159;-94
2022/05/16 01:17:19;;;;;;;2.30;1.70;;;22.20;46.20;;;22.65;34.54;98526.22;4986959;28;115569;-94
2022/05/16 01:19:48;;;;;;;1.60;1.50;;;22.10;46.20;;;22.63;34.66;98517.38;5021628;28;114450;-95
2022/05/16 01:22:35;;;;;;;1.60;1.50;;;22.10;46.40;;;22.57;34.54;98528.22;5014992;28;123255;-94
2022/05/16 01:25:27;;;;;;;1.93;1.63;;;22.10;46.50;;;22.54;34.56;98525.38;4985105;28;123353;-94
2022/05/16 01:28:04;;;;;;;3.27;1.77;;;22.00;46.60;;;22.49;35.01;98516.16;4961063;28;114209;-94
2022/05/16 01:30:47;;;;;;;1.80;1.60;;;20.50;45.40;;;22.46;34.80;98525.41;4973910;28;113163;-94
2022/05/16 01:33:18;;;;;;;15.33;2.07;;;22.00;46.90;;;22.44;35.12;98530.59;4977403;28;123510;-93
2022/05/16 01:35:48;;;;;;;2.23;1.77;;;21.90;46.90;;;22.43;34.82;98525.38;4994968;28;123774;-94
2022/05/16 01:38:35;;;;;;;2.13;1.50;;;21.90;47.00;;;22.39;35.26;98525.38;4979286;28;113522;-94
2022/05/16 01:41:08;;;;;;;2.23;1.70;;;21.80;47.00;;;22.36;35.36;98531.81;4981307;28;113788;-93
2022/05/16 01:43:42;;;;;;;5.63;1.60;;;21.80;47.20;;;22.33;35.42;98529.78;4966036;28;122704;-93
2022/05/16 01:46:47;;;;;;;1.70;1.50;;;21.80;47.30;;;22.26;35.27;98526.94;4962282;28;123633;-93
2022/05/16 01:49:34;;;;;;;4.40;1.87;;;21.80;47.40;;;22.23;35.32;98527.75;4961445;28;114226;-94
2022/05/16 01:52:42;;;;;;;1.67;1.43;;;21.70;47.40;;;22.17;35.60;98537.75;4996120;28;114616;-93
2022/05/16 01:55:11;;;;;;;2.00;1.33;;;21.70;47.40;;;22.13;35.79;98526.47;4983062;28;123763;-94
2022/05/16 01:57:40;;;;;;;2.30;1.50;;;21.60;47.60;;;22.12;35.52;98533.31;5013895;28;123461;-94
2022/05/16 02:00:11;;;;;;;2.33;1.53;;;21.60;47.70;;;22.10;35.67;98534.91;4970788;28;113782;-95
2022/05/16 02:02:41;;;;;;;1.57;1.47;;;21.60;47.80;;;22.08;36.01;98537.28;4966201;28;113487;-95
2022/05/16 02:05:47;;;;;;;3.03;1.27;;;21.50;47.90;;;22.03;36.05;98538.47;4995863;28;123302;-94
2022/05/16 02:08:17;;;;;;;3.27;1.70;;;21.50;48.10;;;21.99;35.82;98532.03;4985534;28;122200;-93
2022/05/16 02:10:45;;;;;;;2.50;1.80;;;21.50;48.20;;;21.94;36.05;98541.66;5017068;28;115267;-93
2022/05/16 02:13:38;;;;;;;1.57;1.47;;;21.40;48.20;;;21.90;36.07;98532.41;4996499;28;114380;-94
2022/05/16 02:16:07;;;;;;;1.50;1.30;;;21.40;48.30;;;21.88;36.28;98522.75;4969937;28;123628;-94
2022/05/16 02:18:35;;;;;;;2.23;1.70;;;21.40;48.40;;;21.85;36.22;98532.78;4982292;28;123519;-93
2022/05/16 02:26:53;;;;;;;2.17;1.40;;;21.30;48.30;;;21.78;36.44;98525.09;4998346;28;124376;-93
2022/05/16 02:29:21;;;;;;;2.00;1.50;;;21.20;48.40;;;21.77;36.13;98520.69;4963541;28;124591;-94
2022/05/16 02:31:49;;;;;;;1.47;1.37;;;21.20;48.50;;;21.76;36.03;98521.91;4984092;28;114750;-94
2022/05/16 02:34:18;;;;;;;2.63;1.60;;;21.20;48.60;;;21.73;36.25;98513.44;4979833;28;114398;-93
2022/05/16 02:36:44;;;;;;;1.33;1.23;;;21.20;48.60;;;21.71;36.59;98521.44;4978945;28;122981;-93
2022/05/16 02:39:32;;;;;;;1.70;1.60;;;21.20;48.60;;;21.66;36.39;98533.09;4982436;28;122937;-93
2022/05/16 02:41:59;;;;;;;1.60;1.50;;;21.10;48.50;;;21.64;36.28;98525.03;4983226;28;113803;-95
2022/05/16 02:45:25;;;;;;;1.70;1.50;;;21.10;48.60;;;21.58;36.25;98521.81;4983507;28;113710;-94
2022/05/16 02:47:53;;;;;;;2.03;1.30;;;21.10;48.60;;;21.58;36.59;98524.63;4987567;28;124631;-93
2022/05/16 02:50:38;;;;;;;1.90;1.70;;;21.00;48.80;;;21.57;36.61;98528.63;4982964;28;124285;-93
2022/05/16 02:53:07;;;;;;;2.27;1.80;;;21.00;48.80;;;21.56;36.36;98527.00;4983957;28;114238;-93
2022/05/16 02:55:52;;;;;;;2.27;1.50;;;21.00;48.70;;;21.53;36.23;98530.59;4986891;28;113152;-94
2022/05/16 02:58:19;;;;;;;1.37;1.27;;;21.00;48.70;;;21.51;36.31;98532.19;4985489;28;123016;-95
2022/05/16 03:00:45;;;;;;;1.97;1.50;;;21.00;48.70;;;21.46;36.27;98533.38;4988000;28;121953;-96
2022/05/16 03:03:12;;;;;;;2.40;1.40;;;20.90;48.60;;;21.47;36.02;98540.63;5003856;28;114734;-95
2022/05/16 03:06:17;;;;;;;1.47;1.20;;;20.90;48.70;;;21.43;36.62;98542.59;4971733;28;115443;-94
2022/05/16 03:09:40;;;;;;;1.57;1.20;;;20.90;48.80;;;21.41;36.52;98547.78;5008775;28;121973;-94
2022/05/16 03:12:08;;;;;;;1.83;1.20;;;20.90;48.80;;;21.37;36.46;98556.19;4984407;28;123828;-95
2022/05/16 03:14:35;;;;;;;1.17;1.07;;;20.80;48.80;;;21.34;36.60;98556.97;4998040;28;114881;-95
2022/05/16 03:17:20;;;;;;;3.20;1.40;;;20.80;48.80;;;21.34;36.33;98551.34;4985881;28;113666;-94
2022/05/16 03:19:47;;;;;;;1.50;1.40;;;20.80;48.80;;;21.36;36.75;98542.53;4972575;28;123409;-94
2022/05/16 03:22:14;;;;;;;1.73;1.60;;;20.80;48.80;;;21.38;36.08;98545.75;5001265;28;123287;-94
2022/05/16 03:24:42;;;;;;;2.00;1.57;;;20.80;48.80;;;21.41;36.66;98547.78;5007724;28;113509;-94
2022/05/16 03:27:09;;;;;;;1.90;1.50;;;20.80;49.00;;;21.43;36.29;98542.59;4984253;28;114751;-93
2022/05/16 03:29:55;;;;;;;2.50;1.43;;;20.80;48.80;;;21.46;36.17;98549.44;4984349;28;123219;-94
2022/05/16 03:32:22;;;;;;;2.20;1.40;;;20.90;48.90;;;21.50;36.01;98547.47;5005481;28;123505;-93
2022/05/16 03:34:55;;;;;;;2.40;1.20;;;20.90;48.80;;;21.53;36.13;98550.28;4998070;28;114365;-94
2022/05/16 03:37:23;;;;;;;2.70;1.30;;;20.90;48.90;;;21.55;36.04;98542.28;4970216;28;114087;-95
2022/05/16 03:42:59;;;;;;;1.33;1.20;;;20.90;48.90;;;21.60;36.13;98553.16;4969224;28;123630;-94
2022/05/16 03:45:26;;;;;;;1.93;1.37;;;21.00;48.90;;;21.62;36.14;98555.56;4964371;28;114484;-95
2022/05/16 03:47:53;;;;;;;1.70;1.30;;;21.00;48.90;;;21.65;36.12;98556.78;4986555;28;112686;-94
2022/05/16 03:54:02;;;;;;;1.50;1.27;;;21.00;48.90;;;21.70;36.24;98557.22;4988147;28;124160;-94
2022/05/16 03:56:30;;;;;;;2.10;1.23;;;21.00;49.00;;;21.72;36.60;98570.88;4990384;28;114641;-93
2022/05/16 03:58:59;;;;;;;1.70;1.30;;;21.10;49.20;;;21.73;36.43;98562.03;4983844;28;114505;-94
2022/05/16 04:01:27;;;;;;;3.23;1.60;;;21.10;49.30;;;21.74;36.83;98569.28;4995325;28;123273;-94
2022/05/16 04:03:55;;;;;;;2.50;1.50;;;21.10;49.40;;;21.74;36.34;98569.28;4998080;28;96987;-91
2022/05/16 04:06:22;;;;;;;1.50;1.30;;;21.10;49.40;;;21.76;36.74;98566.06;5002979;28;114239;-95
2022/05/16 04:08:49;;;;;;;1.87;1.33;;;21.10;49.50;;;21.78;36.93;98574.94;4964352;28;113282;-94
2022/05/16 04:11:17;;;;;;;2.20;1.50;;;21.10;49.60;;;21.79;36.54;98574.56;4976756;28;124529;-94
2022/05/16 04:13:45;;;;;;;2.67;1.70;;;21.10;49.70;;;21.79;37.15;98583.00;4983203;28;121607;-95
2022/05/16 04:16:14;;;;;;;1.67;1.40;;;21.10;49.80;;;21.80;36.97;98578.16;4977814;28;113495;-95
2022/05/16 04:18:44;;;;;;;1.67;1.53;;;21.10;49.90;;;21.81;36.60;98576.94;4995750;28;113021;-94
2022/05/16 04:21:30;;;;;;;2.00;1.57;;;21.20;50.10;;;21.81;37.22;98585.38;4976493;28;124183;-93
2022/05/16 04:23:57;;;;;;;1.40;1.30;;;21.20;50.10;;;21.81;37.38;98593.84;4996653;28;123033;-94
2022/05/16 04:26:23;;;;;;;1.80;1.40;;;21.20;50.20;;;21.80;37.01;98601.47;4979552;28;113920;-94
2022/05/16 04:28:50;;;;;;;2.00;1.60;;;21.20;50.30;;;21.81;37.03;98597.44;4979963;28;113103;-94
2022/05/16 04:31:17;;;;;;;1.50;1.40;;;21.20;50.40;;;21.83;37.31;98594.25;4976210;28;123004;-95
2022/05/16 04:33:44;;;;;;;2.13;1.50;;;21.20;50.60;;;21.78;37.24;98591.81;4978084;28;123575;-94
2022/05/16 04:36:12;;;;;;;2.00;1.60;;;21.10;50.70;;;21.76;37.57;98592.22;4961553;28;113789;-94
2022/05/16 04:38:39;;;;;;;2.60;1.70;;;21.10;50.90;;;21.77;37.81;98584.59;4958282;28;113517;-93
2022/05/16 04:44:09;;;;;;;1.50;1.40;;;21.10;51.20;;;21.79;37.71;98590.63;4973064;28;123936;-91
2022/05/16 04:46:37;;;;;;;1.63;1.53;;;21.10;51.50;;;21.80;37.98;98595.84;4976874;28;115992;-96
2022/05/16 04:49:03;;;;;;;2.20;1.67;;;21.10;51.70;;;21.82;38.42;98593.44;4979827;28;113381;-95
2022/05/16 04:51:30;;;;;;;2.87;1.90;;;21.20;52.00;;;21.83;38.55;98599.88;4977901;28;123960;-95
2022/05/16 04:53:57;;;;;;;2.77;1.63;;;21.20;52.30;;;21.84;38.76;98595.84;4982672;28;123366;-94
2022/05/16 04:56:26;;;;;;;2.23;1.47;;;21.20;52.60;;;21.84;38.87;98602.31;4983825;28;114121;-95
2022/05/16 04:58:52;;;;;;;2.07;1.70;;;21.20;52.90;;;21.86;39.16;98601.91;4991593;28;113536;-94
2022/05/16 05:01:20;;;;;;;1.60;1.50;;;21.20;53.10;;;21.88;39.04;98602.31;4964134;28;124352;-95
2022/05/16 05:04:05;;;;;;;1.50;1.40;;;21.20;53.30;;;21.89;39.52;98603.91;4985615;28;123594;-95
2022/05/16 05:06:33;;;;;;;3.23;1.60;;;21.30;53.50;;;21.94;39.16;98605.56;4987782;28;114144;-95
2022/05/16 05:09:01;;;;;;;2.30;1.90;;;21.30;53.70;;;21.96;39.67;98598.34;5002741;28;113586;-95
2022/05/16 05:14:52;;;;;;;2.27;1.70;;;21.30;53.90;;;21.98;39.41;98595.94;4979541;28;125304;-94
2022/05/16 05:17:22;;;;;;;3.67;1.60;;;21.30;54.00;;;22.01;39.83;98605.59;4976608;28;113358;-94
2022/05/16 05:19:51;;;;;;;2.00;1.30;;;21.40;54.20;;;22.03;39.73;98601.19;4983118;28;114033;-94
2022/05/16 05:22:39;;;;;;;2.03;1.80;;;21.30;54.10;;;22.04;39.53;98600.00;4981540;28;123465;-94
2022/05/16 05:25:14;;;;;;;2.47;2.10;;;21.40;54.40;;;22.09;39.79;98606.47;4979428;28;123036;-95
2022/05/16 05:28:18;;;;;;;2.23;1.83;;;21.40;54.50;;;22.08;39.88;98600.00;4978507;28;114525;-95
2022/05/16 05:31:43;;;;;;;3.27;1.77;;;21.40;54.80;;;22.06;40.08;98613.69;4980349;28;113414;-95
2022/05/16 05:34:11;;;;;;;4.07;2.33;;;21.40;54.70;;;22.01;40.18;98612.03;4981967;28;123794;-92
2022/05/16 05:36:41;;;;;;;2.70;1.80;;;21.40;54.60;;;22.03;40.27;98614.44;5009272;28;123643;-95
2022/05/16 05:39:13;;;;;;;3.73;2.27;;;21.40;54.80;;;22.07;40.20;98615.28;4976802;28;114855;-93
2022/05/16 05:41:40;;;;;;;4.50;2.43;;;21.40;54.90;;;22.10;40.26;98610.88;4987708;28;114590;-95
2022/05/16 05:44:26;;;;;;;6.70;2.87;;;21.40;55.40;;;22.07;40.64;98615.28;4990732;28;122868;-96
2022/05/16 05:46:53;;;;;;;3.40;2.40;;;21.40;55.80;;;22.00;40.51;98620.84;4987845;28;124339;-93
2022/05/16 05:53:02;;;;;;;5.47;3.17;;;21.40;55.80;;;21.95;41.03;98621.22;4992802;28;115201;-95
2022/05/16 05:55:50;;;;;;;5.73;2.50;;;21.30;55.80;;;21.97;40.71;98622.44;5027019;27;124982;-95
2022/05/16 05:59:14;;;;;;;6.20;2.40;;;21.40;56.00;;;22.00;40.91;98634.94;4993187;28;123636;-95
2022/05/16 06:05:23;;;;;;;4.13;2.07;;;21.40;56.20;;;22.04;41.18;98638.59;4996899;28;114882;-96
2022/05/16 06:11:31;;;;;;;3.30;1.80;;;21.40;56.10;;;22.10;40.72;98644.63;4996473;28;125787;-94
2022/05/16 06:13:58;;;;;;;3.20;2.00;;;21.40;56.10;;;22.16;40.73;98635.41;5003403;28;114401;-95
2022/05/16 06:16:24;;;;;;;2.50;2.13;;;21.50;56.20;;;22.21;40.79;98643.50;4985927;28;113522;-89
2022/05/16 06:18:51;;;;;;;2.97;1.97;;;21.50;56.20;;;22.27;40.88;98646.75;4988235;28;124070;-91
2022/05/16 06:21:17;;;;;;;2.43;2.03;;;21.60;56.30;;;22.33;40.83;98652.84;4961316;28;124140;-87
2022/05/16 06:23:45;;;;;;;2.97;2.00;;;21.60;56.30;;;22.39;40.60;98648.44;4988545;28;118748;-93
2022/05/16 06:26:12;;;;;;;2.17;1.67;;;21.60;56.20;;;22.43;40.54;98652.88;4969359;28;119162;-85
2022/05/16 06:28:39;;;;;;;2.60;1.80;;;21.70;56.20;;;22.48;40.45;98651.69;4965317;28;123997;-84
2022/05/16 06:31:07;;;;;;;3.03;1.90;;;21.70;56.30;;;22.53;40.62;98654.13;4959727;28;123681;-87
2022/05/16 06:33:34;;;;;;;2.57;1.67;;;22.70;57.20;;;22.57;40.67;98665.38;4964487;28;120789;-86
2022/05/16 06:36:05;;;;;;;3.03;2.30;;;21.60;56.20;;;22.60;40.27;98670.25;4963611;28;120154;-87
2022/05/16 06:38:35;;;;;;;2.50;1.90;;;21.90;56.40;;;22.62;40.72;98673.44;4972414;28;123603;-85
2022/05/16 06:41:01;;;;;;;3.03;2.07;;;21.90;56.40;;;22.66;40.57;98668.66;4979135;28;123803;-87
2022/05/16 06:43:30;;;;;;;1.97;1.77;;;22.00;56.50;;;22.69;40.45;98667.84;4964980;28;119247;-87
2022/05/16 06:45:57;;;;;;;2.10;1.67;;;22.00;56.40;;;22.77;40.40;98675.13;4957634;28;119116;-86
2022/05/16 06:48:23;;;;;;;1.73;1.60;;;22.00;56.50;;;22.89;40.41;98677.59;4960750;28;124154;-82
2022/05/16 06:50:51;;;;;;;1.97;1.80;;;22.10;56.60;;;23.01;40.40;98672.81;4964929;28;123037;-84
2022/05/16 06:53:31;;;;;;;2.07;1.87;;;22.20;56.80;;;23.10;40.20;98670.41;4980869;28;119503;-85
2022/05/16 06:55:57;;;;;;;2.10;1.90;;;22.30;56.70;;;23.19;40.04;98676.47;4966975;28;119041;-84
2022/05/16 06:58:24;;;;;;;1.90;1.70;;;22.40;56.70;;;23.26;40.09;98672.84;4964142;28;124516;-81
2022/05/16 07:00:51;;;;;;;2.77;2.30;;;22.50;56.80;;;23.37;40.10;98673.66;4993371;28;123077;-81
2022/05/16 07:03:18;;;;;;;2.50;2.30;;;22.60;56.90;;;23.48;40.01;98673.66;4964385;28;119847;-81
2022/05/16 07:05:47;;;;;;;2.50;2.30;;;22.70;56.80;;;23.62;40.01;98679.31;4960582;28;119423;-80
2022/05/16 07:08:14;;;;;;;2.40;2.00;;;22.80;56.90;;;23.76;39.88;98684.19;4963289;28;123393;-81
2022/05/16 07:10:40;;;;;;;3.07;2.20;;;22.90;57.00;;;23.88;39.81;98682.94;4968421;28;124376;-81
2022/05/16 07:13:08;;;;;;;2.47;2.10;;;23.10;56.90;;;23.98;39.82;98690.59;4990567;28;119409;-81
2022/05/16 07:15:34;;;;;;;2.07;1.87;;;23.20;56.90;;;24.10;39.62;98695.00;4952503;28;118970;-80
2022/05/16 07:18:01;;;;;;;1.70;1.60;;;23.30;56.80;;;24.17;39.41;98681.69;4964692;28;124059;-81
2022/05/16 07:20:28;;;;;;;2.80;2.40;;;23.40;56.70;;;24.28;39.29;98692.94;4993152;28;125023;-81
2022/05/16 07:22:58;;;;;;;2.73;2.17;;;23.50;56.60;;;24.40;39.33;98688.91;4960516;28;120236;-81
2022/05/16 07:25:26;;;;;;;2.77;2.27;;;23.60;56.50;;;24.51;39.13;98686.06;4993194;28;120099;-81
2022/05/16 07:27:56;;;;;;;2.70;1.93;;;23.70;56.50;;;24.59;39.20;98687.66;4993836;28;123994;-81
2022/05/16 07:30:28;;;;;;;2.03;1.87;;;23.80;56.40;;;24.67;38.92;98692.06;4952290;28;124052;-81
2022/05/16 07:32:56;;;;;;;2.40;1.90;;;23.90;56.40;;;24.76;38.83;98691.59;4956337;28;119284;-81
2022/05/16 07:35:27;;;;;;;2.40;2.20;;;24.00;56.30;;;24.87;38.78;98686.69;4956372;28;118113;-83
2022/05/16 07:37:54;;;;;;;2.63;2.43;;;24.10;56.20;;;24.93;38.38;98696.34;4962732;28;124123;-80
2022/05/16 07:40:25;;;;;;;3.47;2.27;;;24.20;56.30;;;24.92;39.15;98694.75;4964138;28;123887;-81
2022/05/16 07:42:53;;;;;;;3.93;2.70;;;24.20;56.10;;;24.94;38.96;98695.16;4974724;28;119903;-81
2022/05/16 07:45:22;;;;;;;2.73;2.37;;;24.20;56.10;;;24.95;39.13;98696.75;4947224;28;118967;-81
2022/05/16 07:47:49;;;;;;;6.60;2.30;;;24.30;56.30;;;24.98;39.10;98701.56;4963442;28;123614;-81
2022/05/16 07:50:17;;;;;;;3.60;2.13;;;24.30;56.30;;;24.99;39.02;98705.22;4966535;28;122969;-81
2022/05/16 07:52:50;;;;;;;4.40;2.50;;;24.30;56.30;;;24.99;39.15;98703.19;4995986;28;119442;-81
2022/05/16 07:55:24;;;;;;;4.50;2.67;;;24.40;56.50;;;24.99;39.22;98717.34;4965636;28;119046;-81
2022/05/16 07:57:51;;;;;;;3.13;2.43;;;24.40;56.60;;;24.96;39.42;98721.00;4962366;28;124089;-81
2022/05/16 08:00:21;;;;;;;2.50;2.30;;;24.40;56.70;;;24.96;39.55;98718.16;4962388;28;124388;-82
2022/05/16 08:02:48;;;;;;;3.40;2.67;;;24.40;56.80;;;24.98;39.83;98710.06;4961869;28;119455;-80
2022/05/16 08:05:16;;;;;;;3.17;2.87;;;24.40;56.90;;;24.98;39.77;98717.75;4968092;28;118006;-83
2022/05/16 08:10:31;;;;;;;5.70;3.17;;;24.40;57.20;;;25.00;40.65;98727.41;4970241;28;124379;-82
2022/05/16 08:13:05;;;;;;;2.73;2.53;;;24.40;58.10;;;24.97;40.62;98716.94;4966727;28;119396;-81
2022/05/16 08:15:37;;;;;;;3.70;3.17;;;24.40;58.60;;;24.98;40.70;98715.72;4963645;28;119682;-82
2022/05/16 08:18:05;;;;;;;2.60;2.40;;;24.40;58.30;;;25.00;40.45;98715.31;4968532;28;124122;-82
2022/05/16 08:20:35;;;;;;;2.43;2.23;;;24.40;58.40;;;25.00;40.87;98724.59;4978605;28;124349;-82
2022/05/16 08:23:02;;;;;;;3.70;2.30;;;24.40;58.60;;;25.00;41.01;98727.41;4978734;28;118378;-82
2022/05/16 08:25:28;;;;;;;3.37;2.00;;;24.40;59.50;;;25.01;41.18;98720.56;4959434;28;119130;-81
2022/05/16 08:27:55;;;;;;;2.43;2.20;;;24.40;59.10;;;25.03;41.14;98735.06;4981978;28;124835;-81
2022/05/16 08:30:23;;;;;;;5.80;2.43;;;24.50;59.30;;;25.05;41.32;98735.47;4966903;28;123799;-82
2022/05/16 08:32:51;;;;;;;3.83;2.90;;;24.50;59.50;;;25.05;41.11;98743.94;4967271;28;119390;-81
2022/05/16 08:35:19;;;;;;;3.00;2.50;;;24.50;59.60;;;25.08;41.31;98739.50;4981655;28;119082;-81
2022/05/16 08:40:55;;;;;;;2.30;2.10;;;24.50;59.80;;;25.08;41.71;98751.59;4969534;28;124515;-81
2022/05/16 08:43:54;;;;;;;3.03;2.70;;;24.50;59.90;;;25.11;41.52;98749.97;4978249;28;119444;-80
2022/05/16 08:47:00;;;;;;;3.03;2.47;;;24.50;60.10;;;25.14;41.69;98749.94;4981422;28;118326;-80
2022/05/16 08:49:43;;;;;;;2.53;2.33;;;24.50;60.30;;;25.23;41.81;98757.25;4947498;28;124405;-82
2022/05/16 08:52:40;;;;;;;3.20;2.90;;;24.60;60.50;;;25.30;41.50;98751.53;4963435;28;123782;-82
2022/05/16 08:55:33;;;;;;;4.60;2.47;;;24.60;60.60;;;25.38;41.50;98757.94;4965298;28;119429;-81
2022/05/16 08:58:24;;;;;;;4.17;3.50;;;24.70;60.70;;;25.46;41.52;98756.69;4964724;28;119063;-81
2022/05/16 09:01:13;;;;;;;4.70;2.50;;;24.80;60.90;;;25.53;41.52;98748.16;4960621;28;124017;-81
2022/05/16 09:03:55;;;;;;;4.80;2.60;;;26.20;61.80;;;25.62;40.92;98751.31;4957985;28;123947;-81
2022/05/16 09:06:40;;;;;;;3.80;2.80;;;24.90;60.60;;;25.67;40.96;98753.69;4957552;28;120187;-81
2022/05/16 09:09:18;;;;;;;6.57;3.37;;;25.00;60.40;;;25.67;41.16;98747.25;4965955;28;120026;-81
2022/05/16 09:11:53;;;;;;;4.80;2.70;;;25.10;60.20;;;25.70;40.73;98749.25;4964151;28;124710;-80
2022/05/16 09:14:56;;;;;;;4.57;3.23;;;25.10;60.00;;;25.75;40.83;98748.78;4958050;28;123819;-82
2022/05/16 09:17:51;;;;;;;3.67;2.90;;;25.10;59.80;;;25.85;40.27;98753.59;4964472;28;119764;-82
2022/05/16 09:20:45;;;;;;;8.60;3.57;;;25.20;59.70;;;25.92;39.61;98755.56;4967163;28;119499;-81
2022/05/16 09:23:15;;;;;;;4.37;3.03;;;25.30;59.00;;;25.98;39.37;98756.75;4957176;28;124345;-82
2022/05/16 09:26:11;;;;;;;7.67;3.80;;;25.30;58.40;;;26.05;38.83;98753.03;4964655;28;123594;-81
2022/05/16 09:28:49;;;;;;;4.87;3.40;;;25.40;57.90;;;26.08;38.64;98760.69;4986480;28;116915;-81
2022/05/16 09:31:28;;;;;;;6.53;3.40;;;25.50;57.60;;;26.13;38.77;98763.06;4964780;28;119160;-81
2022/05/16 09:33:59;;;;;;;5.17;4.00;;;25.50;57.40;;;26.18;38.60;98765.44;4967375;28;124815;-80
2022/05/16 09:36:34;;;;;;;3.80;3.50;;;25.60;57.10;;;26.21;38.49;98761.78;4965851;28;124257;-80
2022/05/16 09:39:04;;;;;;;3.70;3.33;;;25.70;57.00;;;26.28;38.52;98764.56;4966478;28;119303;-81
2022/05/16 09:41:36;;;;;;;4.40;2.60;;;25.70;57.00;;;26.37;38.24;98749.88;4993715;28;119403;-81
2022/05/16 09:44:20;;;;;;;10.20;3.30;;;25.80;56.80;;;26.45;38.23;98763.56;4955134;28;124086;-82
2022/05/16 09:46:47;;;;;;;4.50;3.20;;;25.90;56.60;;;26.50;37.86;98764.34;4985832;28;124401;-81
2022/05/16 09:49:26;;;;;;;5.50;3.17;;;25.90;56.00;;;26.51;37.24;98772.44;4962829;28;119346;-82
2022/05/16 09:51:59;;;;;;;6.30;3.47;;;26.00;55.70;;;26.47;37.42;98773.69;4969185;28;118982;-80
2022/05/16 09:54:35;;;;;;;8.37;4.10;;;26.00;55.20;;;26.43;36.90;98779.38;4953472;28;124143;-80
2022/05/16 09:57:19;;;;;;;3.60;2.97;;;26.00;54.80;;;26.40;37.33;98772.50;4979688;28;124288;-81
2022/05/16 09:59:51;;;;;;;5.40;4.10;;;26.00;54.70;;;26.41;37.18;98773.31;4957838;28;120150;-80
2022/05/16 10:02:26;;;;;;;6.33;3.90;;;25.90;54.70;;;26.41;36.90;98774.13;4946906;28;119133;-83
2022/05/16 10:04:57;;;;;;;5.53;3.37;;;26.00;55.30;;;26.42;36.79;98780.59;4962796;28;124077;-80
2022/05/16 10:08:10;;;;;;;7.03;4.20;;;26.00;54.50;;;26.41;37.04;98774.13;4986898;28;123723;-81
2022/05/16 10:10:41;;;;;;;7.93;3.40;;;26.00;54.60;;;26.50;36.57;98775.66;4965112;28;119148;-81
2022/05/16 10:13:08;;;;;;;6.13;4.03;;;26.00;54.40;;;26.51;36.81;98768.75;4981923;28;118365;-82
2022/05/16 10:15:36;;;;;;;4.93;3.47;;;26.00;54.20;;;26.51;36.37;98789.44;4965569;28;124290;-82
2022/05/16 10:18:08;;;;;;;3.97;3.47;;;26.00;53.90;;;26.50;36.74;98770.00;4990357;28;123998;-88
2022/05/16 10:20:42;;;;;;;8.20;3.47;;;26.00;53.90;;;26.53;36.29;98780.53;4946983;28;119419;-89
2022/05/16 10:23:27;;;;;;;8.90;3.63;;;26.10;54.70;;;26.56;36.43;98785.34;4951908;28;118452;-90
2022/05/16 10:26:00;;;;;;;4.70;3.43;;;26.10;54.00;;;26.60;36.41;98786.91;4981659;28;124481;-89
2022/05/16 10:29:21;;;;;;;5.73;3.57;;;26.10;54.00;;;26.64;36.58;98786.88;4998960;28;124022;-90
2022/05/16 10:34:57;;;;;;;4.00;3.20;;;26.20;53.90;;;26.71;36.51;98780.34;4970435;28;118977;-92
2022/05/16 10:37:25;;;;;;;5.70;3.43;;;26.30;53.80;;;26.72;36.37;98785.56;4974720;28;123309;-92
2022/05/16 10:40:09;;;;;;;5.27;3.13;;;26.30;53.90;;;26.68;36.24;98787.66;4974475;28;123984;-91
2022/05/16 10:43:25;;;;;;;5.60;3.87;;;26.30;53.70;;;26.60;36.92;98786.13;4976071;28;119941;-93
2022/05/16 10:46:02;;;;;;;8.60;3.33;;;26.20;53.90;;;26.58;36.76;98799.91;4970088;28;118353;-90
2022/05/16 10:48:45;;;;;;;3.77;3.40;;;26.20;54.20;;;26.57;37.17;98803.94;4967914;28;123795;-92
2022/05/16 10:51:19;;;;;;;7.93;3.73;;;26.20;54.30;;;26.55;36.77;98801.53;4968753;28;124717;-92
2022/05/16 10:54:05;;;;;;;4.20;3.00;;;26.20;54.30;;;26.53;37.32;98806.03;4984120;28;121310;-91
2022/05/16 10:56:50;;;;;;;4.50;3.43;;;26.10;54.40;;;26.50;37.08;98801.97;4994057;28;118868;-91
2022/05/16 10:59:38;;;;;;;3.30;2.83;;;26.10;54.40;;;26.48;37.14;98798.75;4966297;28;123179;-92
2022/05/16 11:02:14;;;;;;;6.20;3.80;;;26.10;54.20;;;26.43;36.64;98800.00;4968930;28;123923;-90
2022/05/16 11:04:57;;;;;;;5.43;3.20;;;26.00;54.10;;;26.40;36.66;98802.88;4967177;28;119213;-90
2022/05/16 11:07:30;;;;;;;4.10;2.87;;;26.00;54.20;;;26.36;36.61;98805.75;4964741;28;118194;-91
2022/05/16 11:10:08;;;;;;;4.60;2.70;;;26.00;54.20;;;26.30;37.09;98798.09;4966948;28;123967;-91
2022/05/16 11:13:00;;;;;;;8.43;3.37;;;25.90;54.10;;;26.23;37.12;98802.63;4965796;28;124526;-89
2022/05/16 11:15:43;;;;;;;3.23;2.80;;;24.70;53.30;;;26.16;37.03;98801.88;4960692;28;119477;-91
2022/05/16 11:18:27;;;;;;;7.40;2.90;;;25.80;54.30;;;26.12;37.75;98820.94;4984768;28;118308;-92
2022/05/16 11:21:05;;;;;;;6.23;2.80;;;25.70;54.70;;;26.06;37.90;98836.75;4970107;28;124175;-94
2022/05/16 11:24:23;;;;;;;4.20;2.97;;;25.70;55.00;;;25.94;38.19;98846.56;4966895;28;123872;-92
2022/05/16 11:27:17;;;;;;;5.10;2.90;;;25.60;55.30;;;25.77;38.36;98849.06;4975751;28;119911;-89
2022/05/16 11:30:41;;;;;;;3.90;2.50;;;25.50;55.50;;;25.64;38.72;98864.09;4966528;28;118952;-95